Time;durP1;ratioP1;P1;durP2;ratioP2;P2;SDS_P1;SDS_P2;PMS_P1;PMS_P2;Temp;Humidity;BMP_temperature;BMP_pressure;BME280_temperature;BME280_humidity;BME280_pressure;Samples;Min_cycle;Max_cycle;Signal;HPM_P1;HPM_P2
2023/09/28 00:02:54;;;;;;;9.32;6.13;;;;;;;14.25;100.00;93066.47;4989058;28;20510;-86
2023/09/28 00:05:20;;;;;;;11.02;5.85;;;;;;;14.27;100.00;93068.78;4991562;28;20085;-87
2023/09/28 00:07:47;;;;;;;9.02;6.32;;;;;;;14.25;100.00;93069.09;4989741;28;20034;-85
2023/09/28 00:10:17;;;;;;;12.80;6.65;;;;;;;14.22;100.00;93061.00;4977663;28;20122;-87
2023/09/28 00:12:46;;;;;;;15.77;6.25;;;;;;;14.21;100.00;93060.22;4963518;28;20039;-86
2023/09/28 00:15:12;;;;;;;14.93;6.63;;;;;;;14.24;100.00;93070.16;4995160;28;20033;-87
2023/09/28 00:17:39;;;;;;;10.63;6.18;;;;;;;14.16;100.00;93055.03;4993697;28;20022;-85
2023/09/28 00:20:20;;;;;;;9.50;5.95;;;;;;;14.20;100.00;93061.28;4996623;28;20402;-86
2023/09/28 00:22:54;;;;;;;11.32;6.15;;;;;;;14.14;100.00;93049.31;4979005;28;20043;-84
2023/09/28 00:25:21;;;;;;;10.07;6.32;;;;;;;14.18;100.00;93049.50;4978798;28;20046;-86
2023/09/28 00:27:51;;;;;;;11.05;5.85;;;;;;;14.17;100.00;93048.72;4976136;28;20026;-86
2023/09/28 00:30:19;;;;;;;10.95;6.13;;;;;;;14.09;100.00;93039.66;4994496;28;20051;-85
2023/09/28 00:32:49;;;;;;;13.63;5.88;;;;;;;14.07;100.00;93035.75;4963585;28;20072;-88
2023/09/28 00:35:15;;;;;;;9.20;6.05;;;;;;;14.07;100.00;93035.75;4997555;28;20034;-86
2023/09/28 00:37:41;;;;;;;14.80;6.63;;;;;;;14.05;100.00;93035.25;4965888;28;20079;-86
2023/09/28 00:40:27;;;;;;;14.73;6.40;;;;;;;14.04;100.00;93036.34;4999530;28;20149;-88
2023/09/28 00:42:54;;;;;;;10.00;6.20;;;;;;;14.01;100.00;93026.41;4977974;28;20047;-86
2023/09/28 00:45:22;;;;;;;13.50;6.28;;;;;;;14.04;100.00;93028.44;4991875;28;20034;-85
2023/09/28 00:47:54;;;;;;;10.98;5.88;;;;;;;14.05;100.00;93028.16;4994741;28;20040;-87
2023/09/28 00:50:22;;;;;;;14.95;6.03;;;;;;;14.05;100.00;93032.63;4991560;28;20034;-85
2023/09/28 00:52:53;;;;;;;10.60;6.07;;;;;;;14.03;100.00;93019.00;4999338;28;20453;-86
2023/09/28 00:55:20;;;;;;;13.50;6.57;;;;;;;14.02;100.00;93017.44;4997768;28;20053;-88
2023/09/28 00:57:47;;;;;;;13.02;6.50;;;;;;;14.08;100.00;93029.44;4983360;28;20034;-85
2023/09/28 01:00:26;;;;;;;10.85;5.57;;;;;;;14.02;100.00;93017.44;5002625;28;20383;-87
2023/09/28 01:02:54;;;;;;;10.80;6.47;;;;;;;14.10;100.00;93027.28;4988084;28;20126;-86
2023/09/28 01:05:33;;;;;;;14.20;5.68;;;;;;;14.12;100.00;93033.81;4999510;28;20035;-85
2023/09/28 01:08:09;;;;;;;9.82;6.10;;;;;;;14.16;100.00;93033.97;4980038;28;20371;-85
2023/09/28 01:10:36;;;;;;;11.77;6.13;;;;;;;14.13;100.00;93016.16;4997099;28;20030;-87
2023/09/28 01:13:12;;;;;;;8.65;5.70;;;;;;;14.16;100.00;93026.09;4993343;28;20030;-87
2023/09/28 01:15:38;;;;;;;9.55;5.75;;;;;;;14.13;100.00;93024.81;4995018;28;20096;-85
2023/09/28 01:18:04;;;;;;;12.90;6.10;;;;;;;14.10;100.00;93022.78;4996232;28;20065;-87
2023/09/28 01:20:35;;;;;;;9.80;5.53;;;;;;;14.10;100.00;93019.38;4998257;28;20041;-85
2023/09/28 01:23:02;;;;;;;9.30;5.75;;;;;;;14.13;100.00;93030.09;4968788;28;20035;-85
2023/09/28 01:25:28;;;;;;;9.73;5.45;;;;;;;14.12;100.00;93025.91;4995013;28;20335;-87
2023/09/28 01:27:54;;;;;;;18.75;5.63;;;;;;;14.12;100.00;93027.78;4979215;28;20125;-86
2023/09/28 01:30:20;;;;;;;16.58;5.78;;;;;;;14.10;100.00;93022.78;4957213;28;20045;-85
2023/09/28 01:32:46;;;;;;;14.30;6.40;;;;;;;14.08;100.00;93011.78;4989633;28;20030;-87
2023/09/28 01:35:12;;;;;;;10.55;5.40;;;;;;;14.11;100.00;93015.66;4980016;28;20034;-85
2023/09/28 01:38:23;;;;;;;12.65;5.15;;;;;;;14.09;100.00;93015.19;4998211;28;20046;-85
2023/09/28 01:40:50;;;;;;;13.43;5.93;;;;;;;14.04;100.00;93010.03;4995981;28;20034;-87
2023/09/28 01:43:19;;;;;;;14.20;5.55;;;;;;;14.05;100.00;93011.56;4995323;28;20042;-86
2023/09/28 01:45:46;;;;;;;12.27;5.63;;;;;;;14.05;100.00;93001.03;4966653;28;20117;-85
2023/09/28 01:48:11;;;;;;;11.32;5.82;;;;;;;14.07;100.00;93009.44;4997042;28;20045;-87
2023/09/28 01:50:37;;;;;;;13.07;6.15;;;;;;;14.07;100.00;92998.91;4996304;28;20038;-85
2023/09/28 01:53:03;;;;;;;14.27;5.93;;;;;;;14.04;100.00;92994.22;4997688;28;20422;-87
2023/09/28 01:55:28;;;;;;;11.05;5.80;;;;;;;14.05;100.00;92993.94;4972906;28;20112;-87
2023/09/28 01:57:54;;;;;;;10.45;6.30;;;;;;;14.08;100.00;93000.47;4958387;28;20043;-86
2023/09/28 02:00:21;;;;;;;11.52;5.93;;;;;;;14.09;100.00;92992.25;4958007;28;20133;-84
2023/09/28 02:02:51;;;;;;;13.98;6.28;;;;;;;14.10;100.00;92993.06;4956837;28;20035;-84
2023/09/28 02:05:19;;;;;;;12.38;5.88;;;;;;;14.10;100.00;92995.69;4997405;28;20034;-86
2023/09/28 02:07:45;;;;;;;9.65;5.72;;;;;;;14.08;100.00;92995.22;4994823;28;20030;-85
2023/09/28 02:10:11;;;;;;;14.63;5.88;;;;;;;14.05;100.00;92987.88;4981566;28;20053;-85
2023/09/28 02:12:41;;;;;;;10.55;5.80;;;;;;;14.06;100.00;92989.44;4980620;28;20034;-86
2023/09/28 02:15:14;;;;;;;11.88;5.80;;;;;;;14.05;100.00;92990.50;4980174;28;20045;-86
2023/09/28 02:17:41;;;;;;;12.90;5.80;;;;;;;14.00;100.00;92983.50;5007479;28;20026;-85
2023/09/28 02:20:09;;;;;;;11.00;5.90;;;;;;;14.02;100.00;92985.84;4983756;28;20034;-85
2023/09/28 02:22:43;;;;;;;11.85;5.82;;;;;;;14.00;100.00;92982.72;5006675;28;20034;-87
2023/09/28 02:25:22;;;;;;;16.55;6.15;;;;;;;14.02;100.00;92986.63;4999126;28;20040;-85
2023/09/28 02:27:49;;;;;;;14.40;6.25;;;;;;;14.05;100.00;92979.97;4995817;28;20481;-88
2023/09/28 02:30:20;;;;;;;11.00;6.00;;;;;;;14.08;100.00;92982.03;4985032;28;20108;-86
2023/09/28 02:32:50;;;;;;;11.88;5.97;;;;;;;14.09;100.00;92980.97;4978925;28;20034;-87
2023/09/28 02:35:17;;;;;;;8.73;5.57;;;;;;;14.04;100.00;92975.81;4955225;28;20137;-86
2023/09/28 02:37:44;;;;;;;9.23;5.82;;;;;;;14.09;100.00;92979.09;4959912;28;20113;-87
2023/09/28 02:40:14;;;;;;;12.35;5.72;;;;;;;14.09;100.00;92987.00;4962989;28;20034;-86
2023/09/28 02:42:42;;;;;;;14.32;6.32;;;;;;;14.10;100.00;92982.53;4997454;28;20061;-86
2023/09/28 02:45:11;;;;;;;14.82;6.25;;;;;;;14.04;100.00;92967.91;4993753;28;20042;-87
2023/09/28 02:47:42;;;;;;;13.48;5.82;;;;;;;14.03;100.00;92972.41;4996198;28;20038;-85
2023/09/28 02:50:11;;;;;;;9.75;5.60;;;;;;;14.10;100.00;92979.91;4964954;28;20466;-85
2023/09/28 02:52:41;;;;;;;13.57;5.97;;;;;;;14.08;100.00;92968.88;4999522;28;20038;-86
2023/09/28 02:55:08;;;;;;;13.13;5.63;;;;;;;14.12;100.00;92975.13;5003848;28;20026;-87
2023/09/28 02:57:35;;;;;;;15.35;5.85;;;;;;;14.12;100.00;92975.13;4994208;28;20177;-87
2023/09/28 03:00:09;;;;;;;9.07;5.32;;;;;;;14.12;100.00;92975.13;4994661;28;20030;-88
2023/09/28 03:02:35;;;;;;;13.05;6.25;;;;;;;14.11;100.00;92973.53;4994882;28;20058;-87
2023/09/28 03:05:00;;;;;;;10.30;6.05;;;;;;;14.15;100.00;92975.28;4975426;28;20039;-86
2023/09/28 03:07:26;;;;;;;9.88;5.90;;;;;;;14.13;100.00;92972.19;4965622;28;20033;-86
2023/09/28 03:09:51;;;;;;;13.40;5.80;;;;;;;14.16;100.00;92968.16;5004217;28;20046;-85
2023/09/28 03:12:17;;;;;;;12.95;5.30;;;;;;;14.23;100.00;92980.94;4988427;28;20026;-87
2023/09/28 03:14:42;;;;;;;9.27;5.55;;;;;;;14.24;100.00;92982.50;4965321;28;20038;-86
2023/09/28 03:17:09;;;;;;;10.43;5.20;;;;;;;14.21;100.00;92972.53;4979966;28;20058;-86
2023/09/28 03:19:34;;;;;;;12.93;5.32;;;;;;;14.26;100.00;92973.22;4978648;28;20117;-83
2023/09/28 03:22:00;;;;;;;11.85;5.57;;;;;;;14.26;100.00;92975.84;4992514;28;20042;-82
2023/09/28 03:24:26;;;;;;;7.97;5.10;;;;;;;14.28;100.00;92978.22;4994405;28;20046;-86
2023/09/28 03:26:51;;;;;;;10.38;5.70;;;;;;;14.21;100.00;92975.97;4993497;28;20023;-86
2023/09/28 03:29:17;;;;;;;12.02;4.85;;;;;;;14.25;100.00;92984.03;4965264;28;20061;-85
2023/09/28 03:31:43;;;;;;;10.85;4.80;;;;;;;14.22;100.00;92979.38;4996985;28;20053;-86
2023/09/28 03:34:08;;;;;;;12.50;5.25;;;;;;;14.23;100.00;92975.66;4982048;28;20030;-84
2023/09/28 03:36:34;;;;;;;11.73;5.10;;;;;;;14.20;100.00;92963.88;4972295;28;20100;-88
2023/09/28 03:39:00;;;;;;;15.70;5.30;;;;;;;14.15;100.00;92958.72;4993541;28;20100;-86
2023/09/28 03:41:25;;;;;;;11.55;5.22;;;;;;;14.23;100.00;92976.47;4974945;28;20126;-86
2023/09/28 03:43:51;;;;;;;9.00;5.18;;;;;;;14.23;100.00;92980.94;4972167;28;20045;-87
2023/09/28 03:46:20;;;;;;;11.45;5.45;;;;;;;14.22;100.00;92979.38;4983407;28;20091;-87
2023/09/28 03:48:46;;;;;;;10.23;5.43;;;;;;;14.15;100.00;92982.41;4976934;28;20104;-87
2023/09/28 03:51:11;;;;;;;11.13;5.43;;;;;;;14.14;100.00;92983.50;4986825;28;20042;-86
2023/09/28 03:53:41;;;;;;;12.45;5.22;;;;;;;14.13;100.00;92984.56;5001704;28;20066;-86
2023/09/28 03:56:07;;;;;;;9.75;5.25;;;;;;;14.13;100.00;92984.56;4983463;28;20083;-86
2023/09/28 03:58:33;;;;;;;9.88;5.53;;;;;;;14.08;100.00;92982.03;4959596;28;20644;-86
2023/09/28 04:00:59;;;;;;;8.35;5.20;;;;;;;14.08;100.00;92976.78;4988946;28;20422;-85
2023/09/28 04:03:24;;;;;;;12.05;5.65;;;;;;;14.01;100.00;92976.41;4971453;28;20038;-86
2023/09/28 04:05:50;;;;;;;14.10;5.63;;;;;;;14.08;100.00;92976.78;4957251;28;20050;-86
2023/09/28 04:08:15;;;;;;;9.70;5.47;;;;;;;14.03;100.00;92982.94;4991485;28;20034;-86
2023/09/28 04:10:41;;;;;;;9.52;5.45;;;;;;;14.04;100.00;92979.22;4954479;28;20027;-86
2023/09/28 04:13:08;;;;;;;17.20;6.07;;;;;;;14.03;100.00;92982.94;4992060;28;20100;-85
2023/09/28 04:15:33;;;;;;;19.42;9.38;;;;;;;14.04;100.00;92986.34;4976309;28;20045;-86
2023/09/28 04:18:00;;;;;;;14.40;9.02;;;;;;;13.99;100.00;92978.56;4992253;28;20449;-84
2023/09/28 04:20:26;;;;;;;18.52;9.93;;;;;;;13.98;100.00;92977.75;4994002;28;20069;-86
2023/09/28 04:22:52;;;;;;;15.43;8.48;;;;;;;14.01;100.00;92979.03;4979332;28;20042;-86
2023/09/28 04:25:19;;;;;;;18.52;7.00;;;;;;;13.99;100.00;92981.19;4978692;28;20062;-86
2023/09/28 04:27:47;;;;;;;10.85;6.25;;;;;;;13.96;100.00;92974.66;4978264;28;20046;-85
2023/09/28 04:30:12;;;;;;;14.10;5.10;;;;;;;13.97;100.00;92972.81;4971968;28;20049;-86
2023/09/28 04:32:39;;;;;;;10.40;5.40;;;;;;;13.94;100.00;92964.41;4960622;28;20042;-86
2023/09/28 04:35:06;;;;;;;9.52;5.13;;;;;;;13.95;100.00;92960.69;4965071;28;20030;-85
2023/09/28 04:37:32;;;;;;;11.80;5.60;;;;;;;13.95;100.00;92960.69;4994886;28;20077;-86
2023/09/28 04:39:58;;;;;;;8.75;5.25;;;;;;;13.95;100.00;92954.66;4972560;28;20105;-89
2023/09/28 04:42:23;;;;;;;13.65;5.68;;;;;;;13.96;100.00;92961.50;4960655;28;20461;-87
2023/09/28 04:44:49;;;;;;;9.57;5.45;;;;;;;13.91;100.00;92951.81;5001813;28;20034;-86
2023/09/28 04:47:15;;;;;;;10.02;5.53;;;;;;;13.90;100.00;92952.91;4996775;28;20038;-85
2023/09/28 04:49:41;;;;;;;11.57;5.65;;;;;;;13.89;100.00;92942.69;4985927;28;20049;-86
2023/09/28 04:52:09;;;;;;;12.70;6.20;;;;;;;13.97;100.00;92957.00;4978584;28;20038;-85
2023/09/28 04:54:36;;;;;;;10.98;5.72;;;;;;;14.01;100.00;92965.88;4986844;28;20061;-84
2023/09/28 04:57:02;;;;;;;9.98;5.45;;;;;;;14.01;100.00;92965.88;4993321;28;20034;-84
2023/09/28 04:59:27;;;;;;;12.23;5.70;;;;;;;14.02;100.00;92970.81;4994969;28;20041;-84
2023/09/28 05:01:53;;;;;;;9.25;6.18;;;;;;;13.97;100.00;92967.53;4993385;28;20472;-86
2023/09/28 05:04:19;;;;;;;11.23;5.40;;;;;;;14.02;100.00;92975.31;4981844;28;20053;-86
2023/09/28 05:06:44;;;;;;;12.48;5.43;;;;;;;14.03;100.00;92977.66;4968674;28;20030;-79
2023/09/28 05:09:13;;;;;;;11.95;5.70;;;;;;;14.05;100.00;92977.34;4997547;28;20036;-81
2023/09/28 05:11:39;;;;;;;11.23;5.70;;;;;;;14.05;100.00;92974.72;4996186;28;20038;-81
2023/09/28 05:14:05;;;;;;;11.57;6.07;;;;;;;14.00;100.00;92967.72;5004858;28;20336;-81
2023/09/28 05:16:31;;;;;;;9.55;5.20;;;;;;;14.05;100.00;92974.72;4998798;28;20081;-81
2023/09/28 05:18:57;;;;;;;16.30;6.00;;;;;;;14.08;100.00;92982.03;5002286;28;20042;-82
2023/09/28 05:21:23;;;;;;;14.23;5.85;;;;;;;14.08;100.00;92988.09;5000636;28;20042;-79
2023/09/28 05:23:50;;;;;;;19.65;5.60;;;;;;;14.05;100.00;92979.97;5004321;28;20045;-84
2023/09/28 05:26:16;;;;;;;10.35;5.63;;;;;;;14.05;100.00;92985.25;5003978;28;20102;-81
2023/09/28 05:28:42;;;;;;;13.63;5.32;;;;;;;14.06;100.00;92984.19;5005320;28;20176;-80
2023/09/28 05:31:09;;;;;;;9.95;5.25;;;;;;;14.05;100.00;92979.97;4994560;28;20074;-81
2023/09/28 05:33:34;;;;;;;11.48;5.40;;;;;;;14.04;100.00;92984.47;4998653;28;20034;-81
2023/09/28 05:36:00;;;;;;;12.95;5.32;;;;;;;14.06;100.00;92986.81;5006844;28;20133;-80
2023/09/28 05:38:26;;;;;;;9.20;5.68;;;;;;;14.05;100.00;92979.97;5002664;28;20030;-80
2023/09/28 05:40:54;;;;;;;14.57;6.28;;;;;;;14.04;100.00;92983.69;4994294;28;20049;-80
2023/09/28 05:43:19;;;;;;;13.95;5.45;;;;;;;14.05;100.00;92986.06;4995567;28;20040;-80
2023/09/28 05:45:45;;;;;;;9.38;5.38;;;;;;;14.07;100.00;92988.38;4999225;28;20069;-80
2023/09/28 05:48:11;;;;;;;10.98;5.30;;;;;;;14.09;100.00;92981.72;5005886;28;20053;-79
2023/09/28 05:50:36;;;;;;;12.60;5.68;;;;;;;14.10;100.00;92982.53;5007236;28;20049;-80
2023/09/28 05:53:02;;;;;;;12.15;5.85;;;;;;;14.11;100.00;92989.34;5003827;28;20405;-79
2023/09/28 05:55:29;;;;;;;9.02;5.50;;;;;;;14.12;100.00;92989.06;5006009;28;20023;-80
2023/09/28 05:57:54;;;;;;;10.77;5.90;;;;;;;14.15;100.00;92996.34;4998967;28;20093;-80
2023/09/28 06:00:20;;;;;;;14.40;5.78;;;;;;;14.16;100.00;92995.28;5000435;28;20048;-79
2023/09/28 06:02:46;;;;;;;12.65;5.78;;;;;;;14.19;100.00;93001.81;4999707;28;20110;-79
2023/09/28 06:05:11;;;;;;;12.75;5.68;;;;;;;14.21;100.00;92998.88;5002910;28;20511;-80
2023/09/28 06:07:37;;;;;;;9.48;5.55;;;;;;;14.23;100.00;93004.63;5011755;28;20036;-79
2023/09/28 06:10:03;;;;;;;8.98;5.47;;;;;;;14.25;100.00;93005.09;5001572;28;20145;-79
2023/09/28 06:12:29;;;;;;;10.48;6.00;;;;;;;14.24;100.00;92998.31;5005996;28;20383;-81
2023/09/28 06:14:55;;;;;;;11.38;5.80;;;;;;;14.30;100.00;93012.94;5011430;28;20041;-79
2023/09/28 06:17:21;;;;;;;12.95;5.47;;;;;;;14.33;100.00;93007.81;5002068;28;20462;-80
2023/09/28 06:19:46;;;;;;;11.98;5.60;;;;;;;14.38;100.00;93007.72;5001070;28;20040;-80
2023/09/28 06:22:12;;;;;;;10.32;5.75;;;;;;;14.47;100.00;93004.38;5010397;28;20034;-80
2023/09/28 06:24:38;;;;;;;14.80;5.93;;;;;;;14.62;100.00;93001.44;5001905;28;20102;-79
2023/09/28 06:27:05;;;;;;;11.40;5.50;;;;;;;14.80;100.00;93004.22;5002127;28;20137;-78
2023/09/28 06:29:32;;;;;;;12.32;5.38;;;;;;;15.04;100.00;93012.59;5001450;28;20109;-78
2023/09/28 06:31:58;;;;;;;10.23;5.40;;;;;;;15.27;100.00;93012.59;5004099;28;20092;-79
2023/09/28 06:34:24;;;;;;;10.15;5.30;;;;;;;15.30;100.00;93012.75;5015049;28;20054;-80
2023/09/28 06:36:50;;;;;;;10.27;5.63;;;;;;;15.35;100.00;93017.13;5010904;28;20052;-80
2023/09/28 06:39:16;;;;;;;10.48;5.32;;;;;;;15.40;100.00;93022.25;5009596;28;20038;-79
2023/09/28 06:41:41;;;;;;;8.90;5.28;;;;;;;15.49;100.00;93024.94;5010827;28;20022;-80
2023/09/28 06:44:08;;;;;;;9.80;5.55;;;;;;;15.55;100.00;93019.22;5007303;28;20060;-80
2023/09/28 06:46:34;;;;;;;13.30;5.57;;;;;;;15.71;100.00;93019.63;5010825;28;20069;-80
2023/09/28 06:48:59;;;;;;;8.20;5.10;;;;;;;16.10;100.00;93027.84;5010181;28;20065;-80
2023/09/28 06:51:26;;;;;;;10.25;5.45;;;;;;;16.51;100.00;93037.28;5005801;28;20022;-81
2023/09/28 06:53:51;;;;;;;7.38;5.20;;;;;;;16.60;100.00;93036.19;5007818;28;20054;-77
2023/09/28 06:56:17;;;;;;;12.75;5.70;;;;;;;16.67;100.00;93037.59;5002637;28;20037;-80
2023/09/28 06:58:43;;;;;;;9.43;5.15;;;;;;;17.55;100.00;93036.47;5011667;28;20091;-81
2023/09/28 07:01:08;;;;;;;9.90;4.90;;;;;;;18.10;100.00;93040.94;4998096;28;20100;-81
2023/09/28 07:03:34;;;;;;;8.88;4.85;;;;;;;18.49;100.00;93031.84;5001659;28;20045;-80
2023/09/28 07:06:00;;;;;;;10.82;5.30;;;;;;;19.06;100.00;93033.19;5009803;28;20076;-81
2023/09/28 07:08:26;;;;;;;11.45;4.72;;;;;;;19.13;100.00;93037.97;4998622;28;20045;-81
2023/09/28 07:10:52;;;;;;;11.82;4.78;;;;;;;18.95;100.00;93031.25;5007810;28;20026;-81
2023/09/28 07:13:18;;;;;;;12.23;5.07;;;;;;;19.17;100.00;93040.75;4999160;28;20068;-80
2023/09/28 07:15:43;;;;;;;13.93;5.28;;;;;;;19.11;100.00;93048.13;5006653;28;20144;-81
2023/09/28 07:18:09;;;;;;;12.43;4.90;;;;;;;19.09;100.00;93047.66;5001203;28;20251;-81
2023/09/28 07:20:36;;;;;;;11.63;5.50;;;;;;;18.95;100.00;93049.81;5008904;28;20030;-81
2023/09/28 07:23:02;;;;;;;9.98;5.03;;;;;;;18.83;100.00;93056.63;4999634;28;20064;-81
2023/09/28 07:25:29;;;;;;;11.48;5.00;;;;;;;18.68;100.00;93049.97;5004814;28;20086;-80
2023/09/28 07:27:55;;;;;;;20.27;5.85;;;;;;;18.56;100.00;93047.25;5000130;28;20200;-81
2023/09/28 07:30:22;;;;;;;12.02;5.35;;;;;;;18.52;100.00;93055.06;5002150;28;20073;-81
2023/09/28 07:32:49;;;;;;;12.35;5.13;;;;;;;18.46;100.00;93052.91;5002705;28;20057;-80
2023/09/28 07:35:15;;;;;;;11.68;5.78;;;;;;;18.38;100.00;93056.41;5005395;28;20559;-80
2023/09/28 07:37:42;;;;;;;10.27;4.85;;;;;;;18.28;100.00;93063.63;4998694;28;20481;-80
2023/09/28 07:40:08;;;;;;;12.27;5.55;;;;;;;18.19;100.00;93056.81;4999997;28;20456;-81
2023/09/28 07:42:34;;;;;;;12.32;4.93;;;;;;;18.14;100.00;93062.28;5003399;28;20034;-81
2023/09/28 07:45:00;;;;;;;12.60;5.13;;;;;;;18.12;100.00;93061.81;5005913;28;20405;-80
2023/09/28 07:47:25;;;;;;;13.68;5.13;;;;;;;18.05;100.00;93062.31;5002406;28;20041;-80
2023/09/28 07:49:54;;;;;;;15.52;5.80;;;;;;;18.10;100.00;93070.88;5009208;28;20040;-79
2023/09/28 07:52:19;;;;;;;11.40;5.53;;;;;;;18.18;100.00;93066.63;5002786;28;20397;-78
2023/09/28 07:54:45;;;;;;;13.25;5.32;;;;;;;18.24;100.00;93067.25;5000917;28;20113;-80
2023/09/28 07:57:11;;;;;;;12.43;5.20;;;;;;;18.28;100.00;93065.47;4997929;28;20355;-80
2023/09/28 07:59:36;;;;;;;12.32;5.22;;;;;;;18.38;100.00;93067.78;5004946;28;20038;-78
2023/09/28 08:02:04;;;;;;;7.82;5.60;;;;;;;18.52;100.00;93065.66;5004440;28;20513;-80
2023/09/28 08:04:30;;;;;;;10.40;4.70;;;;;;;18.76;100.00;93066.94;4997618;28;20057;-80
2023/09/28 08:06:59;;;;;;;13.60;5.72;;;;;;;18.92;100.00;93073.25;4999010;28;20042;-79
2023/09/28 08:09:25;;;;;;;12.75;5.18;;;;;;;19.32;100.00;93070.13;5003313;28;20046;-79
2023/09/28 08:11:51;;;;;;;12.15;5.38;;;;;;;19.82;100.00;93075.59;5005638;28;20077;-80
2023/09/28 08:14:17;;;;;;;18.13;5.15;;;;;;;20.25;100.00;93069.00;5004083;28;20030;-79
2023/09/28 08:16:44;;;;;;;12.20;6.15;;;;;;;20.41;100.00;93072.56;4994768;28;20176;-80
2023/09/28 08:19:10;;;;;;;16.38;5.22;;;;;;;20.56;100.00;93082.56;5006363;28;20041;-79
2023/09/28 08:21:38;;;;;;;13.52;5.15;;;;;;;20.78;100.00;93076.00;5005619;28;20066;-77
2023/09/28 08:24:05;;;;;;;9.15;4.97;;;;;;;21.08;100.00;93073.03;4999629;28;20097;-79
2023/09/28 08:26:31;;;;;;;8.73;4.93;;;;;;;21.12;100.00;93079.25;5002003;28;20038;-79
2023/09/28 08:28:58;;;;;;;10.48;5.13;;;;;;;20.88;100.00;93073.97;4963972;28;20053;-79
2023/09/28 08:31:24;;;;;;;12.15;5.65;;;;;;;20.59;100.00;93087.19;5004661;28;20054;-80
2023/09/28 08:33:49;;;;;;;10.00;5.40;;;;;;;20.37;100.00;93079.63;5005690;28;20034;-79
2023/09/28 08:36:16;;;;;;;11.98;5.63;;;;;;;19.90;100.00;93086.13;4983032;28;20041;-78
2023/09/28 08:38:41;;;;;;;10.32;5.53;;;;;;;19.65;100.00;93095.88;5001437;28;20042;-80
2023/09/28 08:41:09;;;;;;;12.00;6.05;;;;;;;19.43;100.00;93093.59;4997617;28;20042;-80
2023/09/28 08:43:43;;;;;;;26.95;6.13;;;;;;;19.53;100.00;93088.66;5003971;28;20032;-81
2023/09/28 08:46:14;;;;;;;18.50;7.05;;;;;;;19.63;100.00;93082.16;5005886;28;20040;-81
2023/09/28 08:48:45;;;;;;;15.93;5.65;;;;;;;19.70;100.00;93084.31;4997051;28;20038;-81
2023/09/28 08:51:11;;;;;;;14.25;6.00;;;;;;;19.72;100.00;93080.25;4996264;28;20044;-82
2023/09/28 08:53:38;;;;;;;16.73;5.45;;;;;;;19.47;100.00;93081.22;5004103;28;20493;-81
2023/09/28 08:56:07;;;;;;;10.65;4.93;;;;;;;19.53;100.00;93082.56;4981708;28;20046;-81
2023/09/28 08:58:34;;;;;;;11.00;5.32;;;;;;;19.38;100.00;93086.59;5005468;28;20034;-81
2023/09/28 09:01:02;;;;;;;12.63;5.35;;;;;;;19.31;100.00;93089.78;4998429;28;20049;-81
2023/09/28 09:03:28;;;;;;;11.02;5.88;;;;;;;19.45;100.00;93091.38;4999904;28;20084;-80
2023/09/28 09:05:55;;;;;;;10.13;5.60;;;;;;;19.78;100.00;93093.31;5006228;28;20042;-82
2023/09/28 09:08:22;;;;;;;12.23;5.50;;;;;;;20.02;100.00;93085.38;5011819;28;20048;-81
2023/09/28 09:10:51;;;;;;;10.95;5.10;;;;;;;20.11;100.00;93086.06;5004138;28;20158;-80
2023/09/28 09:13:20;;;;;;;13.50;6.05;;;;;;;20.21;100.00;93081.41;5009506;28;20231;-80
2023/09/28 09:15:45;;;;;;;13.77;4.97;;;;;;;20.43;100.00;93080.97;5000927;28;20042;-80
2023/09/28 09:18:19;;;;;;;11.60;4.85;;;;;;;20.43;100.00;93086.28;5010747;28;20505;-80
2023/09/28 09:20:46;;;;;;;11.88;5.22;;;;;;;20.36;100.00;93086.84;5010777;28;20113;-80
2023/09/28 09:23:16;;;;;;;9.82;4.97;;;;;;;20.61;100.00;93080.78;5007770;28;20038;-81
2023/09/28 09:25:53;;;;;;;10.75;5.22;;;;;;;21.07;100.00;93076.03;4999903;28;20034;-81
2023/09/28 09:28:34;;;;;;;10.25;5.53;;;;;;;20.80;100.00;93072.97;4999617;28;20073;-81
2023/09/28 09:31:03;;;;;;;13.63;5.60;;;;;;;21.12;100.00;93073.13;5007751;28;20038;-79
2023/09/28 09:33:29;;;;;;;8.93;4.68;;;;;;;21.02;100.00;93076.28;5008296;28;20038;-80
2023/09/28 09:35:55;;;;;;;18.88;6.22;;;;;;;20.92;100.00;93075.63;5006642;28;20045;-81
2023/09/28 09:38:27;;;;;;;14.85;6.10;;;;;;;20.63;100.00;93073.25;5004506;28;20022;-81
2023/09/28 09:41:00;;;;;;;12.98;5.43;;;;;;;20.90;100.00;93082.41;5003436;28;20117;-79
2023/09/28 09:43:36;;;;;;;13.50;5.43;;;;;;;21.12;100.00;93076.59;5005014;28;20049;-79
2023/09/28 09:46:04;;;;;;;11.48;4.93;;;;;;;21.11;100.00;93075.03;5007762;28;20062;-81
2023/09/28 09:48:36;;;;;;;10.80;5.45;;;;;;;20.84;100.00;93067.78;5006723;28;20038;-81
2023/09/28 09:51:02;;;;;;;;;;;;;;;20.63;100.00;93079.34;5009290;28;20034;-80
2023/09/28 09:53:30;;;;;;;11.40;5.88;;;;;;;20.58;100.00;93069.69;5005078;28;19948;-81
2023/09/28 09:55:56;;;;;;;9.85;5.43;;;;;;;20.74;100.00;93071.69;5008306;28;20053;-84
2023/09/28 09:58:27;;;;;;;17.30;5.68;;;;;;;20.96;100.00;93071.19;4996000;28;20034;-81
2023/09/28 10:00:57;;;;;;;18.55;6.78;;;;;;;20.75;100.00;93073.22;4994132;28;20042;-79
2023/09/28 10:03:23;;;;;;;9.25;5.30;;;;;;;20.98;100.00;93071.63;4999993;28;20073;-80
2023/09/28 10:05:49;;;;;;;10.23;5.80;;;;;;;21.05;100.00;93072.94;4999080;28;20054;-80
2023/09/28 10:08:16;;;;;;;13.23;5.57;;;;;;;21.10;100.00;93070.06;4997946;28;20043;-77
2023/09/28 10:10:43;;;;;;;16.33;5.60;;;;;;;21.10;100.00;93080.69;5008434;28;20068;-80
2023/09/28 10:13:10;;;;;;;10.18;5.38;;;;;;;20.86;100.00;93081.53;4998043;28;20061;-79
2023/09/28 10:15:37;;;;;;;14.13;5.70;;;;;;;20.67;100.00;93090.06;5006633;28;20042;-80
2023/09/28 10:18:03;;;;;;;17.02;6.05;;;;;;;20.64;100.00;93074.78;5000265;28;20478;-80
2023/09/28 10:20:30;;;;;;;12.90;5.68;;;;;;;21.20;100.00;93082.88;5008434;28;20031;-79
2023/09/28 10:22:56;;;;;;;11.60;5.40;;;;;;;21.27;100.00;93079.63;5007099;28;20409;-79
2023/09/28 10:25:23;;;;;;;10.60;5.05;;;;;;;21.40;100.00;93081.94;5004753;28;20034;-80
2023/09/28 10:27:49;;;;;;;11.07;5.10;;;;;;;21.34;100.00;93079.81;5011033;28;20033;-79
2023/09/28 10:30:20;;;;;;;9.27;4.82;;;;;;;21.28;100.00;93076.66;4998782;28;20042;-80
2023/09/28 10:32:46;;;;;;;9.07;5.03;;;;;;;20.86;100.00;93076.97;5007759;28;20056;-80
2023/09/28 10:35:26;;;;;;;12.40;4.97;;;;;;;20.91;100.00;93063.44;4997994;28;20065;-79
2023/09/28 10:38:13;;;;;;;9.40;5.28;;;;;;;20.98;100.00;93073.50;5006544;28;20441;-79
2023/09/28 10:40:41;;;;;;;11.95;4.55;;;;;;;20.98;100.00;93073.50;5002995;28;20030;-79
2023/09/28 10:43:10;;;;;;;12.77;5.32;;;;;;;21.11;100.00;93071.59;4998661;28;20135;-79
2023/09/28 10:45:37;;;;;;;13.20;5.32;;;;;;;21.30;100.00;93058.44;4998133;28;20034;-79
2023/09/28 10:48:09;;;;;;;11.65;4.80;;;;;;;21.33;100.00;93065.75;5003207;28;20135;-79
2023/09/28 10:50:38;;;;;;;14.25;5.97;;;;;;;21.58;100.00;93057.69;4979850;28;20140;-79
2023/09/28 10:53:03;;;;;;;12.88;5.05;;;;;;;21.56;100.00;93065.22;4993813;28;20030;-79
2023/09/28 10:55:29;;;;;;;13.70;5.75;;;;;;;21.46;100.00;93057.72;4993316;28;20077;-81
2023/09/28 10:58:02;;;;;;;12.35;5.70;;;;;;;21.61;100.00;93062.31;4996988;28;20041;-78
2023/09/28 11:00:27;;;;;;;14.80;5.40;;;;;;;21.54;100.00;93059.47;4996882;28;20034;-80
2023/09/28 11:02:53;;;;;;;7.78;4.85;;;;;;;21.88;100.00;93057.28;4995796;28;20030;-79
2023/09/28 11:05:19;;;;;;;10.85;5.22;;;;;;;21.93;100.00;93057.03;4994622;28;20054;-78
2023/09/28 11:07:48;;;;;;;10.70;4.60;;;;;;;21.81;100.00;93042.66;4994730;28;20053;-80
2023/09/28 11:10:14;;;;;;;15.45;5.68;;;;;;;21.29;100.00;93050.78;4989588;28;20502;-80
2023/09/28 11:12:41;;;;;;;13.90;4.93;;;;;;;21.42;100.00;93042.44;4995517;28;20038;-81
2023/09/28 11:15:09;;;;;;;13.30;5.10;;;;;;;21.49;100.00;93041.84;4995385;28;20048;-81
2023/09/28 11:17:37;;;;;;;8.50;5.28;;;;;;;21.29;100.00;93043.56;5002224;28;20034;-80
2023/09/28 11:20:04;;;;;;;13.10;5.32;;;;;;;21.49;100.00;93044.50;4998207;28;20038;-81
2023/09/28 11:22:30;;;;;;;8.45;4.45;;;;;;;21.96;100.00;93046.47;5006191;28;20022;-81